Home

PKWA Terminal Aerodrome Forecast (TAF)small logo


TAF provided by NWS Guam
2016/02/10 18:58
TAF PKWA 101736Z 1018/1118 07015KT P6SM VCSH FEW020 SCT050 BKN120

      



Site Map | Contact Us | Copyright © 2007 Atmospheric Technology Services Company. All rights reserved.